Time;durP1;ratioP1;P1;durP2;ratioP2;P2;SDS_P1;SDS_P2;PMS_P1;PMS_P2;Temp;Humidity;BMP_temperature;BMP_pressure;BME280_temperature;BME280_humidity;BME280_pressure;Samples;Min_cycle;Max_cycle;Signal;HPM_P1;HPM_P2
2023/01/19 00:01:29;;;;;;;10.75;7.35;;;;;;;-4.75;100.00;94719.50;5094941;28;24449;-73
2023/01/19 00:03:55;;;;;;;9.80;7.57;;;;;;;-4.84;100.00;94724.75;5092941;28;24454;-73
2023/01/19 00:06:22;;;;;;;9.13;7.82;;;;;;;-4.87;100.00;94714.72;5099771;28;24768;-73
2023/01/19 00:08:50;;;;;;;10.70;7.80;;;;;;;-4.96;100.00;94722.50;5101429;28;24444;-73
2023/01/19 00:11:17;;;;;;;11.43;7.60;;;;;;;-4.95;100.00;94716.56;5090161;28;24535;-73
2023/01/19 00:13:48;;;;;;;9.93;7.40;;;;;;;-4.92;100.00;94719.03;5101681;28;25236;-73
2023/01/19 00:16:17;;;;;;;10.95;7.00;;;;;;;-4.98;100.00;94725.03;5097474;28;24449;-73
2023/01/19 00:18:43;;;;;;;11.18;7.90;;;;;;;-5.06;100.00;94718.47;5086555;28;24433;-73
2023/01/19 00:21:10;;;;;;;12.95;7.70;;;;;;;-5.09;100.00;94718.53;5094040;28;25015;-73
2023/01/19 00:23:36;;;;;;;11.20;7.80;;;;;;;-5.07;100.00;94715.13;5102357;28;24434;-73
2023/01/19 00:26:03;;;;;;;13.88;7.47;;;;;;;-5.03;100.00;94716.72;5091773;28;24430;-73
2023/01/19 00:28:29;;;;;;;9.30;7.63;;;;;;;-4.96;100.00;94719.97;5089181;28;24430;-73
2023/01/19 00:30:56;;;;;;;11.43;7.33;;;;;;;-4.82;100.00;94720.53;5097277;28;24437;-73
2023/01/19 00:33:24;;;;;;;12.15;7.55;;;;;;;-4.69;100.00;94728.66;5094218;28;24437;-73
2023/01/19 00:35:53;;;;;;;9.63;7.53;;;;;;;-4.74;100.00;94726.25;5086688;28;24434;-73
2023/01/19 00:38:20;;;;;;;10.07;7.63;;;;;;;-4.80;100.00;94726.34;5093612;28;24498;-73
2023/01/19 00:40:47;;;;;;;13.57;7.85;;;;;;;-4.77;100.00;94728.84;5094561;28;24461;-73
2023/01/19 00:43:13;;;;;;;9.95;7.20;;;;;;;-4.78;100.00;94727.19;5097329;28;24457;-72
2023/01/19 00:45:40;;;;;;;10.00;7.95;;;;;;;-4.71;100.00;94732.91;5085770;28;24839;-72
2023/01/19 00:48:07;;;;;;;8.93;7.18;;;;;;;-4.63;100.00;94736.13;5098553;28;24445;-73
2023/01/19 00:50:35;;;;;;;9.25;7.22;;;;;;;-4.58;100.00;94730.97;5094475;28;24442;-72
2023/01/19 00:53:02;;;;;;;16.40;7.72;;;;;;;-4.68;100.00;94735.38;5094302;28;24427;-72
2023/01/19 00:55:29;;;;;;;10.50;7.82;;;;;;;-4.69;100.00;94733.72;5092419;28;24625;-72
2023/01/19 00:57:55;;;;;;;7.88;6.72;;;;;;;-4.66;100.00;94739.53;5097143;28;24429;-73
2023/01/19 01:00:23;;;;;;;11.53;7.33;;;;;;;-4.72;100.00;94742.19;5100430;28;24437;-72
2023/01/19 01:02:52;;;;;;;14.93;7.40;;;;;;;-4.91;100.00;94738.38;5098318;28;24490;-72
2023/01/19 01:05:19;;;;;;;11.13;7.95;;;;;;;-5.11;100.00;94736.25;5089544;28;24453;-72
2023/01/19 01:07:48;;;;;;;9.93;7.72;;;;;;;-5.26;100.00;94742.41;5093898;28;24440;-72
2023/01/19 01:10:17;;;;;;;9.15;7.57;;;;;;;-5.40;100.00;94740.13;5094629;28;24510;-72
2023/01/19 01:12:43;;;;;;;9.67;8.00;;;;;;;-5.38;100.00;94742.59;5087093;28;24435;-72
2023/01/19 01:15:12;;;;;;;10.70;8.02;;;;;;;-5.36;100.00;94745.94;5089125;28;24445;-72
2023/01/19 01:17:45;;;;;;;21.52;8.48;;;;;;;-5.27;100.00;94742.41;5097718;28;24481;-72
2023/01/19 01:20:15;;;;;;;12.98;7.88;;;;;;;-5.25;100.00;94743.22;5101426;28;24970;-72
2023/01/19 01:22:44;;;;;;;10.98;8.00;;;;;;;-5.26;100.00;94759.25;5088427;28;24478;-73
2023/01/19 01:25:12;;;;;;;11.15;8.10;;;;;;;-5.27;100.00;94755.84;5089080;28;24507;-72
2023/01/19 01:27:39;;;;;;;9.95;7.63;;;;;;;-5.21;100.00;94752.41;5092403;28;24433;-72
2023/01/19 01:30:07;;;;;;;10.10;8.25;;;;;;;-5.33;100.00;94756.00;5096443;28;24440;-72
2023/01/19 01:32:33;;;;;;;11.80;7.03;;;;;;;-5.40;100.00;94757.78;5087244;28;24432;-72
2023/01/19 01:35:00;;;;;;;11.38;7.90;;;;;;;-5.49;100.00;94747.84;5087617;28;24433;-72
2023/01/19 01:37:26;;;;;;;8.85;7.88;;;;;;;-5.53;100.00;94751.28;5097136;28;24430;-72
2023/01/19 01:39:53;;;;;;;11.77;8.48;;;;;;;-5.55;100.00;94758.06;5100866;28;24433;-72
2023/01/19 01:42:26;;;;;;;9.45;7.68;;;;;;;-5.59;100.00;94761.47;5099372;28;25031;-72
2023/01/19 01:44:54;;;;;;;8.98;7.95;;;;;;;-5.53;100.00;94755.50;5083076;28;24427;-72
2023/01/19 01:47:27;;;;;;;9.93;7.43;;;;;;;-5.33;100.00;94755.16;5083562;28;24443;-72
2023/01/19 01:50:01;;;;;;;10.52;7.57;;;;;;;-5.31;100.00;94758.47;5102170;28;24825;-72
2023/01/19 01:52:29;;;;;;;15.90;7.68;;;;;;;-5.35;100.00;94758.53;5097886;28;24441;-72
2023/01/19 01:54:57;;;;;;;10.63;8.13;;;;;;;-5.23;100.00;94761.69;5090754;28;24434;-72
2023/01/19 01:57:26;;;;;;;10.52;7.40;;;;;;;-5.35;100.00;94757.69;5097604;28;24422;-72
2023/01/19 01:59:55;;;;;;;18.20;8.23;;;;;;;-5.40;100.00;94754.44;5097238;28;24441;-73
2023/01/19 02:05:12;;;;;;;12.15;7.95;;;;;;;-5.56;100.00;94747.97;5089388;28;24495;-72
2023/01/19 02:13:19;;;;;;;11.27;7.70;;;;;;;-5.41;100.00;94755.31;5084949;28;24449;-72
2023/01/19 02:15:47;;;;;;;10.55;7.03;;;;;;;-5.36;100.00;94756.03;5095575;28;24985;-72
2023/01/19 02:18:13;;;;;;;9.93;8.02;;;;;;;-5.58;100.00;94745.47;5096803;28;24434;-72
2023/01/19 02:20:44;;;;;;;17.67;11.55;;;;;;;-5.69;100.00;94748.19;5102312;28;24438;-72
2023/01/19 02:23:18;;;;;;;22.08;15.27;;;;;;;-5.71;100.00;94747.41;5097604;28;24458;-72
2023/01/19 02:25:47;;;;;;;21.42;13.52;;;;;;;-5.72;100.00;94749.91;5090771;28;24445;-72
2023/01/19 02:28:15;;;;;;;16.35;10.80;;;;;;;-5.66;100.00;94753.19;5081810;28;24439;-72
2023/01/19 02:30:42;;;;;;;14.20;9.60;;;;;;;-5.53;100.00;94752.97;5093135;28;24983;-72
2023/01/19 02:33:08;;;;;;;10.32;8.75;;;;;;;-5.55;100.00;94749.66;5094985;28;24426;-72
2023/01/19 02:35:38;;;;;;;12.68;8.93;;;;;;;-5.52;100.00;94752.13;5102094;28;24430;-72
2023/01/19 02:38:06;;;;;;;11.00;8.65;;;;;;;-5.47;100.00;94753.69;5097558;28;25013;-72
2023/01/19 02:40:33;;;;;;;10.50;8.77;;;;;;;-5.48;100.00;94754.56;5089775;28;24477;-72
2023/01/19 02:43:02;;;;;;;19.38;12.40;;;;;;;-5.41;100.00;94758.66;5094918;28;24465;-72
2023/01/19 02:45:29;;;;;;;9.82;8.73;;;;;;;-5.31;100.00;94754.25;5089306;28;24440;-72
2023/01/19 02:47:55;;;;;;;9.40;7.97;;;;;;;-5.24;100.00;94752.47;5102462;28;24799;-72
2023/01/19 02:50:37;;;;;;;10.02;7.63;;;;;;;-5.27;100.00;94749.97;5095516;28;24437;-73
2023/01/19 02:53:17;;;;;;;13.47;8.53;;;;;;;-5.54;100.00;94758.88;5094360;28;24439;-72
2023/01/19 02:55:51;;;;;;;7.57;6.77;;;;;;;-5.55;100.00;94758.06;5095981;28;25002;-72
2023/01/19 02:58:26;;;;;;;9.88;7.35;;;;;;;-5.60;100.00;94763.19;5096511;28;24437;-72
2023/01/19 03:01:03;;;;;;;9.88;7.32;;;;;;;-5.58;100.00;94762.31;5097056;28;24439;-72
2023/01/19 03:03:37;;;;;;;10.25;7.90;;;;;;;-5.71;100.00;94772.63;5080662;28;24542;-72
2023/01/19 03:06:08;;;;;;;10.60;7.40;;;;;;;-5.56;100.00;94763.09;5090539;28;24440;-72
2023/01/19 03:08:45;;;;;;;8.63;6.80;;;;;;;-5.48;100.00;94758.78;5085885;28;24441;-72
2023/01/19 03:11:13;;;;;;;10.02;7.22;;;;;;;-5.55;100.00;94755.53;5097141;28;24438;-72
2023/01/19 03:13:47;;;;;;;9.23;7.18;;;;;;;-5.78;100.00;94768.53;5087294;28;25015;-72
2023/01/19 03:16:20;;;;;;;9.63;7.93;;;;;;;-5.90;100.00;94769.53;5100134;28;24434;-72
2023/01/19 03:18:52;;;;;;;9.65;7.60;;;;;;;-5.94;100.00;94762.91;5095186;28;24537;-72
2023/01/19 03:21:22;;;;;;;9.10;7.00;;;;;;;-6.00;100.00;94773.09;5100260;28;24899;-72
2023/01/19 03:23:50;;;;;;;10.60;7.50;;;;;;;-6.00;100.00;94768.03;5083198;28;24553;-72
2023/01/19 03:26:22;;;;;;;9.68;7.20;;;;;;;-6.01;100.00;94771.41;5101915;28;24441;-72
2023/01/19 03:28:51;;;;;;;10.17;7.87;;;;;;;-6.02;100.00;94767.22;5095723;28;24535;-72
2023/01/19 03:31:20;;;;;;;8.80;7.00;;;;;;;-6.01;100.00;94768.88;5099607;28;24546;-72
2023/01/19 03:33:50;;;;;;;9.10;6.95;;;;;;;-5.88;100.00;94757.72;5090697;28;24462;-72
2023/01/19 03:36:23;;;;;;;13.60;7.88;;;;;;;-5.82;100.00;94768.56;5101155;28;24829;-72
2023/01/19 03:38:50;;;;;;;11.02;7.05;;;;;;;-5.72;100.00;94760.00;5100319;28;25003;-72
2023/01/19 03:41:21;;;;;;;9.55;7.60;;;;;;;-5.65;100.00;94767.44;5096694;28;24866;-72
2023/01/19 03:43:51;;;;;;;9.57;7.40;;;;;;;-5.64;100.00;94764.06;5096734;28;25002;-72
2023/01/19 03:46:18;;;;;;;8.25;7.32;;;;;;;-5.51;100.00;94773.97;5098684;28;24437;-72
2023/01/19 03:48:45;;;;;;;10.50;7.32;;;;;;;-5.47;100.00;94770.53;5100856;28;24440;-72
2023/01/19 03:51:13;;;;;;;11.05;7.38;;;;;;;-5.60;100.00;94770.75;5096653;28;24515;-73
2023/01/19 03:53:40;;;;;;;12.35;7.53;;;;;;;-5.58;100.00;94767.34;5094518;28;24539;-72
2023/01/19 03:56:10;;;;;;;8.20;7.30;;;;;;;-5.60;100.00;94773.28;5098180;28;24437;-72
2023/01/19 03:58:37;;;;;;;8.88;6.68;;;;;;;-5.56;100.00;94775.72;5099154;28;24440;-72
2023/01/19 04:01:04;;;;;;;13.07;7.45;;;;;;;-5.63;100.00;94775.84;5096987;28;24437;-72
2023/01/19 04:03:31;;;;;;;8.48;6.80;;;;;;;-5.67;100.00;94793.56;5100488;28;24438;-72
2023/01/19 04:05:57;;;;;;;11.10;6.53;;;;;;;-5.71;100.00;94795.31;5100596;28;24521;-72
2023/01/19 04:08:24;;;;;;;8.43;6.90;;;;;;;-5.76;100.00;94791.19;5097598;28;24448;-72
2023/01/19 04:10:50;;;;;;;8.27;6.57;;;;;;;-5.67;100.00;94794.41;5099704;28;24433;-72
2023/01/19 04:13:17;;;;;;;11.85;6.72;;;;;;;-5.68;100.00;94792.72;5090848;28;24469;-73
2023/01/19 04:15:43;;;;;;;7.47;6.18;;;;;;;-5.69;100.00;94796.09;5095194;28;24437;-72
2023/01/19 04:18:11;;;;;;;9.53;6.53;;;;;;;-5.72;100.00;94791.09;5082237;28;24494;-72
2023/01/19 04:20:37;;;;;;;8.57;6.90;;;;;;;-5.73;100.00;94806.28;5083661;28;24440;-72
2023/01/19 04:23:04;;;;;;;9.85;6.88;;;;;;;-5.63;100.00;94792.66;5078282;28;24817;-72
2023/01/19 04:25:30;;;;;;;7.20;5.97;;;;;;;-5.62;100.00;94801.88;5094456;28;24809;-72
2023/01/19 04:27:57;;;;;;;7.97;6.28;;;;;;;-5.49;100.00;94789.91;5087765;28;24975;-72
2023/01/19 04:30:24;;;;;;;9.50;7.05;;;;;;;-5.71;100.00;94797.84;5096569;28;25072;-72
2023/01/19 04:32:51;;;;;;;8.18;6.28;;;;;;;-5.68;100.00;94794.41;5091464;28;24464;-72
2023/01/19 04:35:18;;;;;;;9.43;6.47;;;;;;;-5.52;100.00;94779.88;5097238;28;24474;-72
2023/01/19 04:37:45;;;;;;;10.88;6.30;;;;;;;-5.50;100.00;94788.25;5098856;28;24440;-72
2023/01/19 04:40:12;;;;;;;6.57;5.65;;;;;;;-5.67;100.00;94791.88;5090387;28;24438;-72
2023/01/19 04:42:38;;;;;;;9.30;6.55;;;;;;;-5.81;100.00;94791.25;5101509;28;24426;-72
2023/01/19 04:45:05;;;;;;;10.02;7.10;;;;;;;-5.57;100.00;94791.72;5094971;28;24430;-72
2023/01/19 04:47:32;;;;;;;11.50;8.23;;;;;;;-5.61;100.00;94796.81;5101575;28;24457;-72
2023/01/19 04:49:58;;;;;;;18.83;9.85;;;;;;;-5.53;100.00;94786.59;5085656;28;24437;-73
2023/01/19 04:52:33;;;;;;;13.97;10.13;;;;;;;-5.49;100.00;94797.47;5096248;28;24492;-73
2023/01/19 04:55:00;;;;;;;12.60;9.25;;;;;;;-5.48;100.00;94794.94;5095650;28;24445;-73
2023/01/19 04:57:26;;;;;;;12.35;8.85;;;;;;;-5.65;100.00;94807.81;5091440;28;24434;-73
2023/01/19 04:59:53;;;;;;;14.38;8.98;;;;;;;-5.75;100.00;94813.84;5095612;28;24442;-72
2023/01/19 05:02:19;;;;;;;12.13;8.15;;;;;;;-5.73;100.00;94814.66;5095094;28;25041;-73
2023/01/19 05:04:46;;;;;;;10.30;8.07;;;;;;;-5.72;100.00;94811.28;5096606;28;24433;-73
2023/01/19 05:07:12;;;;;;;10.50;8.00;;;;;;;-5.72;100.00;94813.81;5104331;28;24429;-73
2023/01/19 05:09:40;;;;;;;9.02;7.28;;;;;;;-5.70;100.00;94809.56;5096684;28;24441;-73
2023/01/19 05:12:07;;;;;;;11.23;7.50;;;;;;;-5.67;100.00;94809.53;5104221;28;24436;-72
2023/01/19 05:14:33;;;;;;;10.77;7.53;;;;;;;-5.65;100.00;94807.81;5099322;28;24442;-72
2023/01/19 05:17:02;;;;;;;10.50;7.78;;;;;;;-5.88;100.00;94813.22;5104716;28;24437;-73
2023/01/19 05:19:28;;;;;;;11.57;7.65;;;;;;;-5.79;100.00;94814.75;5086720;28;24434;-72
2023/01/19 05:21:55;;;;;;;13.80;9.25;;;;;;;-5.69;100.00;94807.88;5097314;28;24438;-72
2023/01/19 05:24:21;;;;;;;11.15;7.47;;;;;;;-5.56;100.00;94816.94;5098080;28;24439;-72
2023/01/19 05:26:49;;;;;;;10.77;7.70;;;;;;;-5.76;100.00;94821.44;5099295;28;25006;-73
2023/01/19 05:29:16;;;;;;;10.55;7.32;;;;;;;-5.73;100.00;94818.88;5103029;28;24433;-73
2023/01/19 05:31:42;;;;;;;8.82;7.40;;;;;;;-5.64;100.00;94818.72;5091783;28;24438;-73
2023/01/19 05:34:10;;;;;;;10.38;6.82;;;;;;;-5.53;100.00;94819.38;5093070;28;24462;-72
2023/01/19 05:36:37;;;;;;;8.97;6.80;;;;;;;-5.57;100.00;94822.00;5090618;28;24442;-73
2023/01/19 05:39:03;;;;;;;8.25;7.03;;;;;;;-5.72;100.00;94818.00;5082721;28;24429;-73
2023/01/19 05:41:30;;;;;;;9.77;6.38;;;;;;;-6.00;100.00;94821.00;5088581;28;24438;-73
2023/01/19 05:43:58;;;;;;;10.68;6.70;;;;;;;-6.26;100.00;94828.06;5092040;28;24439;-73
2023/01/19 05:46:24;;;;;;;7.82;6.72;;;;;;;-6.35;100.00;94818.94;5082548;28;24443;-73
2023/01/19 05:48:51;;;;;;;10.80;7.03;;;;;;;-6.27;100.00;94827.22;5076518;28;24513;-73
2023/01/19 05:51:17;;;;;;;8.63;6.30;;;;;;;-6.41;100.00;94819.84;5071524;28;24797;-73
2023/01/19 05:53:44;;;;;;;15.20;7.38;;;;;;;-6.52;100.00;94824.19;5095372;28;24465;-73
2023/01/19 05:56:11;;;;;;;11.52;9.73;;;;;;;-6.53;100.00;94827.53;5080699;28;24442;-73
2023/01/19 05:58:38;;;;;;;14.48;10.52;;;;;;;-6.53;100.00;94826.72;5102660;28;25112;-73
2023/01/19 06:01:09;;;;;;;12.60;9.00;;;;;;;-6.50;100.00;94832.53;5099870;28;20768;-73
2023/01/19 06:03:38;;;;;;;11.95;8.05;;;;;;;-6.50;100.00;94834.25;5086257;28;24449;-73
2023/01/19 06:06:04;;;;;;;9.52;7.53;;;;;;;-6.58;100.00;94840.19;5091410;28;24533;-73
2023/01/19 06:08:31;;;;;;;7.85;7.05;;;;;;;-6.50;100.00;94849.34;5076055;28;24797;-73
2023/01/19 06:10:57;;;;;;;9.57;7.47;;;;;;;-6.34;100.00;94840.75;5077301;28;24441;-73
2023/01/19 06:13:24;;;;;;;12.13;7.90;;;;;;;-6.19;100.00;94845.63;5078918;28;24457;-72
2023/01/19 06:15:56;;;;;;;10.80;8.18;;;;;;;-6.05;100.00;94840.38;5076315;28;24430;-72
2023/01/19 06:18:24;;;;;;;10.00;8.43;;;;;;;-5.96;100.00;94834.38;5078986;28;24436;-73
2023/01/19 06:20:57;;;;;;;10.00;8.05;;;;;;;-5.91;100.00;94840.16;5088925;28;25019;-72
2023/01/19 06:23:23;;;;;;;10.60;8.10;;;;;;;-5.82;100.00;94836.66;5085162;28;24430;-72
2023/01/19 06:25:50;;;;;;;8.82;7.97;;;;;;;-5.88;100.00;94847.69;5095165;28;24438;-71
2023/01/19 06:28:17;;;;;;;12.10;9.47;;;;;;;-5.86;100.00;94848.47;5091976;28;24463;-71
2023/01/19 06:30:45;;;;;;;16.10;12.98;;;;;;;-5.75;100.00;94854.19;5099886;28;24434;-72
2023/01/19 06:33:12;;;;;;;15.80;12.10;;;;;;;-5.90;100.00;94854.41;5098211;28;25251;-72
2023/01/19 06:35:42;;;;;;;10.75;8.10;;;;;;;-6.00;100.00;94857.97;5097418;28;24438;-72
2023/01/19 06:38:09;;;;;;;10.45;7.35;;;;;;;-5.94;100.00;94856.19;5084234;28;24457;-72
2023/01/19 06:40:35;;;;;;;10.63;7.80;;;;;;;-5.90;100.00;94864.50;5085017;28;24437;-72
2023/01/19 06:43:02;;;;;;;15.17;7.93;;;;;;;-5.98;100.00;94868.84;5094910;28;25037;-72
2023/01/19 06:45:28;;;;;;;9.40;8.13;;;;;;;-5.84;100.00;94864.44;5098577;28;24999;-72
2023/01/19 06:47:55;;;;;;;10.60;8.80;;;;;;;-5.70;100.00;94870.09;5092600;28;24980;-72
2023/01/19 06:50:21;;;;;;;9.77;8.30;;;;;;;-5.57;100.00;94864.88;5085505;28;24524;-72
2023/01/19 06:52:50;;;;;;;8.57;7.05;;;;;;;-5.41;100.00;94863.81;5097640;28;24438;-72
2023/01/19 06:55:17;;;;;;;8.00;6.45;;;;;;;-5.39;100.00;94869.66;5087801;28;24434;-71
2023/01/19 06:57:44;;;;;;;9.45;7.50;;;;;;;-5.31;100.00;94869.53;5092653;28;24983;-72
2023/01/19 07:00:13;;;;;;;10.87;7.03;;;;;;;-5.23;100.00;94871.09;5090487;28;24430;-72
2023/01/19 07:02:42;;;;;;;8.27;7.37;;;;;;;-5.46;100.00;94870.59;5076771;28;24956;-73
2023/01/19 07:05:10;;;;;;;10.48;8.07;;;;;;;-5.60;100.00;94863.22;5089736;28;24519;-71
2023/01/19 07:07:38;;;;;;;11.05;7.95;;;;;;;-5.61;100.00;94871.66;5086951;28;24445;-73
2023/01/19 07:10:07;;;;;;;12.15;8.20;;;;;;;-5.85;100.00;94871.16;5083587;28;24975;-73
2023/01/19 07:12:34;;;;;;;9.68;7.55;;;;;;;-5.76;100.00;94875.22;5087791;28;24466;-73
2023/01/19 07:15:00;;;;;;;9.73;7.28;;;;;;;-5.92;100.00;94876.34;5097441;28;24450;-73
2023/01/19 07:17:27;;;;;;;9.35;7.15;;;;;;;-5.97;100.00;94876.41;5078538;28;24439;-73
2023/01/19 07:19:53;;;;;;;13.27;7.80;;;;;;;-5.99;100.00;94873.06;5082120;28;24785;-73
2023/01/19 07:22:20;;;;;;;10.20;7.43;;;;;;;-5.87;100.00;94879.59;5093466;28;24434;-73
2023/01/19 07:24:46;;;;;;;10.93;7.28;;;;;;;-5.73;100.00;94884.44;5092004;28;24453;-73
2023/01/19 07:27:15;;;;;;;8.75;7.10;;;;;;;-5.58;100.00;94876.66;5100108;28;24437;-73
2023/01/19 07:29:41;;;;;;;9.63;7.15;;;;;;;-5.50;100.00;94886.63;5097149;28;24533;-73
2023/01/19 07:32:09;;;;;;;10.25;7.57;;;;;;;-5.51;100.00;94878.25;5097123;28;24438;-73
2023/01/19 07:34:36;;;;;;;10.53;7.63;;;;;;;-5.53;100.00;94879.94;5093943;28;24446;-73
2023/01/19 07:37:02;;;;;;;9.40;7.53;;;;;;;-5.43;100.00;94876.44;5099572;28;24430;-73
2023/01/19 07:39:29;;;;;;;8.45;7.53;;;;;;;-5.37;100.00;94883.91;5085488;28;24450;-74
2023/01/19 07:41:56;;;;;;;11.10;7.88;;;;;;;-5.33;100.00;94887.22;5070437;28;24547;-73
2023/01/19 07:44:23;;;;;;;11.57;7.55;;;;;;;-5.29;100.00;94888.84;5076664;28;24636;-74
2023/01/19 07:46:50;;;;;;;7.80;6.82;;;;;;;-5.06;100.00;94895.19;5079929;28;24434;-74
2023/01/19 07:49:17;;;;;;;9.50;7.15;;;;;;;-4.94;100.00;94882.38;5097131;28;24434;-73
2023/01/19 07:51:43;;;;;;;7.20;6.47;;;;;;;-4.77;100.00;94890.50;5093172;28;24480;-75
2023/01/19 07:54:10;;;;;;;10.57;7.47;;;;;;;-4.57;100.00;94892.66;5102992;28;24453;-74
2023/01/19 07:56:37;;;;;;;7.53;6.68;;;;;;;-4.51;100.00;94896.78;5097234;28;24948;-74
2023/01/19 07:59:03;;;;;;;8.00;6.77;;;;;;;-4.26;100.00;94895.44;5097143;28;25002;-74
2023/01/19 08:01:31;;;;;;;12.50;7.85;;;;;;;-4.05;100.00;94891.63;5092911;28;24436;-74
2023/01/19 08:03:57;;;;;;;10.75;8.10;;;;;;;-3.96;100.00;94893.16;5100685;28;24981;-74
2023/01/19 08:06:29;;;;;;;13.73;8.53;;;;;;;-3.84;100.00;94903.03;5088600;28;24437;-74
2023/01/19 08:08:56;;;;;;;12.60;8.10;;;;;;;-3.85;100.00;94895.47;5095722;28;24432;-74
2023/01/19 08:11:22;;;;;;;10.93;8.00;;;;;;;-3.84;100.00;94905.56;5091807;28;24448;-74
2023/01/19 08:13:49;;;;;;;8.88;7.47;;;;;;;-3.88;100.00;94903.13;5101011;28;24488;-74
2023/01/19 08:16:15;;;;;;;9.75;7.50;;;;;;;-3.74;100.00;94907.03;5098231;28;24437;-74
2023/01/19 08:18:43;;;;;;;11.10;7.35;;;;;;;-3.84;100.00;94909.78;5101204;28;24442;-74
2023/01/19 08:21:09;;;;;;;10.43;7.83;;;;;;;-3.69;100.00;94904.41;5092470;28;24477;-74
2023/01/19 08:23:36;;;;;;;11.85;7.68;;;;;;;-3.39;100.00;94902.88;5101471;28;24433;-74
2023/01/19 08:26:17;;;;;;;11.98;8.13;;;;;;;-3.50;100.00;94910.72;5097803;28;24433;-73
2023/01/19 08:28:43;;;;;;;9.32;7.70;;;;;;;-3.23;100.00;94906.72;5088184;28;24438;-73
2023/01/19 08:31:10;;;;;;;14.65;8.25;;;;;;;-3.34;100.00;94907.84;5098766;28;24426;-73
2023/01/19 08:33:36;;;;;;;13.60;8.40;;;;;;;-3.24;100.00;94909.28;5100807;28;24450;-74
2023/01/19 08:36:04;;;;;;;12.70;7.95;;;;;;;-3.50;100.00;94912.41;5097164;28;24433;-75
2023/01/19 08:38:31;;;;;;;11.57;8.45;;;;;;;-3.75;100.00;94925.59;5101370;28;24429;-74
2023/01/19 08:40:57;;;;;;;8.50;7.17;;;;;;;-3.83;100.00;94921.56;5090912;28;24433;-74
2023/01/19 08:43:24;;;;;;;9.88;7.32;;;;;;;-3.85;100.00;94928.38;5106303;28;24440;-72
2023/01/19 08:45:52;;;;;;;11.65;7.15;;;;;;;-3.90;100.00;94925.91;5086597;28;24435;-74
2023/01/19 08:48:21;;;;;;;8.43;6.43;;;;;;;-3.91;100.00;94926.78;5108017;28;24433;-74
2023/01/19 08:50:49;;;;;;;9.55;6.43;;;;;;;-3.75;100.00;94927.28;5101469;28;24475;-74
2023/01/19 08:53:17;;;;;;;6.35;5.75;;;;;;;-3.84;100.00;94914.84;5107338;28;24429;-74
2023/01/19 08:55:44;;;;;;;8.13;6.00;;;;;;;-3.80;100.00;94913.91;5096256;28;24576;-74
2023/01/19 08:58:11;;;;;;;14.88;6.53;;;;;;;-3.76;100.00;94916.34;5105121;28;24437;-74
2023/01/19 09:00:39;;;;;;;8.40;7.47;;;;;;;-3.45;100.00;94931.72;5090721;28;24964;-74
2023/01/19 09:03:06;;;;;;;8.57;6.40;;;;;;;-3.17;100.00;94936.16;5073137;28;24438;-74
2023/01/19 09:05:37;;;;;;;7.70;6.05;;;;;;;-3.07;100.00;94931.72;5084882;28;24437;-74
2023/01/19 09:08:07;;;;;;;10.20;6.32;;;;;;;-3.17;100.00;94936.97;5098244;28;24870;-74
2023/01/19 09:10:36;;;;;;;8.93;6.32;;;;;;;-3.25;100.00;94940.56;5108204;28;24789;-74
2023/01/19 09:13:04;;;;;;;9.68;5.97;;;;;;;-3.26;100.00;94934.66;5088743;28;24450;-74
2023/01/19 09:15:32;;;;;;;9.00;6.47;;;;;;;-3.25;100.00;94933.78;5108168;28;24487;-74
2023/01/19 09:17:59;;;;;;;9.93;8.40;;;;;;;-3.23;100.00;94932.03;5088533;28;24981;-74
2023/01/19 09:20:26;;;;;;;8.98;6.53;;;;;;;-3.27;100.00;94934.69;5107810;28;24430;-74
2023/01/19 09:22:52;;;;;;;9.57;6.10;;;;;;;-3.19;100.00;94928.59;5088986;28;24888;-74
2023/01/19 09:25:19;;;;;;;8.63;6.75;;;;;;;-3.17;100.00;94931.09;5096539;28;25019;-74
2023/01/19 09:27:46;;;;;;;7.03;6.00;;;;;;;-3.14;100.00;94925.94;5097686;28;24487;-74
2023/01/19 09:30:13;;;;;;;9.48;6.72;;;;;;;-3.13;100.00;94937.75;5102318;28;24774;-75
2023/01/19 09:32:40;;;;;;;8.43;6.88;;;;;;;-3.11;100.00;94930.13;5103478;28;24430;-74
2023/01/19 09:35:07;;;;;;;8.27;7.38;;;;;;;-3.01;100.00;94931.53;5099627;28;24982;-73
2023/01/19 09:37:33;;;;;;;7.50;6.55;;;;;;;-3.02;100.00;94930.72;5103951;28;24433;-73
2023/01/19 09:40:00;;;;;;;7.80;6.72;;;;;;;-2.96;100.00;94930.59;5099445;28;24434;-73
2023/01/19 09:42:34;;;;;;;9.68;7.05;;;;;;;-2.89;100.00;94928.75;5079460;28;24440;-73
2023/01/19 09:45:05;;;;;;;13.63;7.80;;;;;;;-2.75;100.00;94934.28;5099141;28;24429;-73
2023/01/19 09:47:33;;;;;;;11.88;8.70;;;;;;;-2.67;100.00;94921.41;5080832;28;24449;-73
2023/01/19 09:50:03;;;;;;;8.82;7.60;;;;;;;-2.76;100.00;94927.56;5098943;28;24437;-73
2023/01/19 09:52:32;;;;;;;10.57;7.93;;;;;;;-2.75;100.00;94933.44;5080092;28;24845;-73
2023/01/19 09:54:59;;;;;;;8.43;6.78;;;;;;;-2.72;100.00;94929.16;5098292;28;24454;-73
2023/01/19 09:57:27;;;;;;;10.07;7.80;;;;;;;-2.80;100.00;94927.69;5103283;28;24433;-73
2023/01/19 09:59:58;;;;;;;12.27;7.03;;;;;;;-2.75;100.00;94928.38;5099376;28;24422;-73
2023/01/19 10:02:36;;;;;;;11.32;8.10;;;;;;;-2.65;100.00;94921.41;5103045;28;24440;-73
2023/01/19 10:05:05;;;;;;;8.63;7.17;;;;;;;-2.53;100.00;94934.59;5097681;28;24994;-73
2023/01/19 10:07:47;;;;;;;13.00;8.05;;;;;;;-2.55;100.00;94930.44;5103572;28;24452;-73
2023/01/19 10:10:19;;;;;;;9.52;7.50;;;;;;;-2.50;100.00;94933.69;5098311;28;24473;-73
2023/01/19 10:12:59;;;;;;;9.77;7.38;;;;;;;-2.50;100.00;94928.59;5099747;28;24437;-73
2023/01/19 10:15:37;;;;;;;12.80;7.60;;;;;;;-2.44;100.00;94931.00;5082678;28;24500;-73
2023/01/19 10:18:13;;;;;;;10.15;7.10;;;;;;;-2.15;100.00;94934.44;5101840;28;24434;-73
2023/01/19 10:20:43;;;;;;;9.38;7.13;;;;;;;-1.71;100.00;94936.63;5103364;28;24432;-73
2023/01/19 10:23:40;;;;;;;15.27;7.95;;;;;;;-1.35;100.00;94933.88;5101269;28;24430;-73
2023/01/19 10:26:11;;;;;;;13.60;7.65;;;;;;;-1.12;100.00;94929.78;5093690;28;24449;-73
2023/01/19 10:28:39;;;;;;;12.82;7.63;;;;;;;-1.13;100.00;94933.22;5103235;28;24432;-73
2023/01/19 10:31:08;;;;;;;8.95;6.57;;;;;;;-1.13;100.00;94941.66;5100271;28;24436;-73
2023/01/19 10:33:36;;;;;;;8.50;5.97;;;;;;;-1.00;100.00;94935.34;5102758;28;24991;-73
2023/01/19 10:36:15;;;;;;;11.50;5.68;;;;;;;-1.04;100.00;94936.31;5095308;28;24460;-73
2023/01/19 10:38:42;;;;;;;7.43;4.95;;;;;;;-0.82;100.00;94938.16;5102942;28;24422;-73
2023/01/19 10:41:14;;;;;;;6.72;5.15;;;;;;;-0.69;100.00;94934.38;5100295;28;24481;-73
2023/01/19 10:43:43;;;;;;;7.15;5.43;;;;;;;-0.63;100.00;94921.47;5102725;28;24449;-72
2023/01/19 10:46:20;;;;;;;8.67;5.47;;;;;;;-0.62;100.00;94940.91;5099880;28;24874;-73
2023/01/19 10:48:50;;;;;;;7.65;5.43;;;;;;;-0.56;100.00;94927.97;5102535;28;24437;-73
2023/01/19 10:51:17;;;;;;;6.75;5.18;;;;;;;-0.50;100.00;94929.50;5099946;28;24427;-73
2023/01/19 10:53:55;;;;;;;7.40;5.03;;;;;;;-0.40;100.00;94927.50;5102439;28;25055;-73
2023/01/19 10:56:24;;;;;;;8.07;5.20;;;;;;;-0.36;100.00;94929.06;5098543;28;24644;-73
2023/01/19 10:58:50;;;;;;;6.15;4.85;;;;;;;-0.20;100.00;94931.91;5102908;28;25009;-73
2023/01/19 11:01:20;;;;;;;5.82;4.40;;;;;;;-0.69;100.00;94919.09;5091438;28;24431;-73
2023/01/19 11:03:47;;;;;;;6.20;4.30;;;;;;;-0.54;100.00;94925.41;5102574;28;24532;-73
2023/01/19 11:06:29;;;;;;;6.43;4.10;;;;;;;-0.86;100.00;94926.44;5091966;28;24437;-73
2023/01/19 11:09:11;;;;;;;5.75;4.07;;;;;;;-0.93;100.00;94928.34;5094725;28;24980;-72
2023/01/19 11:11:43;;;;;;;6.13;4.85;;;;;;;-1.14;100.00;94921.41;5091712;28;24429;-73
2023/01/19 11:14:12;;;;;;;5.03;4.40;;;;;;;-1.19;100.00;94918.97;5101060;28;24438;-73
2023/01/19 11:16:40;;;;;;;7.10;4.82;;;;;;;-1.16;100.00;94916.34;5087487;28;25014;-73
2023/01/19 11:19:18;;;;;;;6.47;4.97;;;;;;;-1.08;100.00;94918.66;5092646;28;24428;-73
2023/01/19 11:21:46;;;;;;;9.55;5.72;;;;;;;-0.98;100.00;94922.56;5098500;28;24436;-73
2023/01/19 11:24:15;;;;;;;7.80;5.30;;;;;;;-0.70;100.00;94917.44;5098391;28;24442;-73
2023/01/19 11:26:44;;;;;;;6.90;5.38;;;;;;;-0.76;100.00;94915.94;5102222;28;24490;-73
2023/01/19 11:29:17;;;;;;;8.97;5.67;;;;;;;-0.76;100.00;94910.00;5101238;28;24953;-73
2023/01/19 11:31:44;;;;;;;10.82;6.45;;;;;;;-0.82;100.00;94913.56;5101899;28;24518;-73
2023/01/19 11:34:24;;;;;;;11.75;7.53;;;;;;;-0.64;100.00;94909.59;5100786;28;25033;-73
2023/01/19 11:37:00;;;;;;;7.78;6.10;;;;;;;-0.69;100.00;94906.38;5101575;28;24430;-72